Home   Weather   United Kingdom   Coventry   Past weeks
Flag for United Kingdom

Past Weather in Coventry, England, United Kingdom — Yesterday and Last 2 Weeks

Currently: 73 °F. Sunny. (Weather station: Birmingham / Airport, United Kingdom). See more current weather

Past Weather in Coventry — Graph

°F

Coventry Temperature Yesterday

Maximum temperature yesterday: 82 °F (at 3:20 pm)
Minimum temperature yesterday: 52 °F (at 5:50 am)
Average temperature yesterday: 69 °F

High & Low Weather Summary for the Past Weeks

 TemperatureHumidityPressure
High82 °F (Aug 9, 3:20 pm)100% (Jul 27, 4:20 am)30.42 "Hg (Jul 27, 4:20 am)
Low45 °F (Jul 27, 4:20 am)32% (Aug 8, 5:20 pm)29.86 "Hg (Aug 2, 11:50 pm)
Average65 °F65%30.13 "Hg
* Reported Jul 26 9:20 am — Aug 10 9:20 am, Coventry. Weather by CustomWeather, © 2022

Note: Actual official high and low records may vary slightly from our data, if they occured in-between our weather recording intervals... More about our weather records

Coventry Weather History for the Previous 24 Hours

Scroll right to see more
 ConditionsComfort  
Time TempWeatherWind HumidityBarometerVisibility
9:20 am
Wed, Aug 10
73 °FSunny.1 mph41%30.36 "Hg10 mi
8:50 am70 °FSunny.2 mph53%30.36 "Hg10 mi
8:20 am68 °FPassing clouds.3 mph56%30.36 "HgN/A
7:50 am64 °FPassing clouds.5 mph68%30.36 "HgN/A
7:20 am59 °FSunny.2 mph82%30.36 "Hg10 mi
6:50 am55 °FSunny.2 mph88%30.36 "Hg10 mi
6:20 am54 °FSunny.1 mph94%30.36 "Hg10 mi
5:50 am52 °FSunny.No wind94%30.36 "Hg10 mi
5:20 am54 °FClear.No wind88%30.36 "Hg10 mi
4:50 am54 °FClear.2 mph88%30.36 "Hg10 mi
4:20 am55 °FClear.3 mph88%30.36 "Hg10 mi
3:20 am61 °FClear.3 mph72%30.36 "Hg10 mi
2:50 am63 °FClear.5 mph68%30.36 "Hg10 mi
2:20 am63 °FClear.5 mph68%30.36 "Hg10 mi
1:50 am61 °FClear.6 mph72%30.36 "Hg10 mi
11:50 pm
Tue, Aug 9
61 °FClear.3 mph72%30.36 "Hg10 mi
11:20 pm63 °FClear.2 mph68%30.36 "Hg10 mi
10:20 pm64 °FPassing clouds.5 mph64%30.36 "HgN/A
9:50 pm70 °FPassing clouds.3 mph53%30.36 "HgN/A
9:20 pm68 °FClear.5 mph60%30.36 "Hg10 mi
8:50 pm77 °FClear.6 mph39%30.36 "Hg10 mi
8:20 pm77 °FSunny.5 mph42%30.33 "Hg10 mi
7:50 pm79 °FPassing clouds.6 mph37%30.33 "HgN/A
7:20 pm81 °FPassing clouds.5 mph34%30.33 "HgN/A
6:50 pm81 °FPassing clouds.6 mph34%30.33 "HgN/A
6:20 pm82 °FPassing clouds.3 mph32%30.33 "HgN/A
5:50 pm81 °FPassing clouds.3 mph34%30.33 "HgN/A
5:20 pm82 °FPassing clouds.7 mph35%30.33 "HgN/A
4:50 pm82 °FPassing clouds.3 mph35%30.36 "HgN/A
4:20 pm81 °FSunny.3 mph34%30.36 "Hg10 mi
3:50 pm81 °FSunny.5 mph37%30.36 "Hg10 mi
3:20 pm82 °FPassing clouds.7 mph35%30.36 "HgN/A
2:20 pm81 °FSunny.6 mph37%30.36 "Hg10 mi
1:20 pm77 °FPassing clouds.6 mph44%30.39 "HgN/A
12:50 pm77 °FPassing clouds.5 mph44%30.39 "HgN/A
12:20 pm79 °FSunny.3 mph45%30.42 "Hg10 mi
11:50 am75 °FPassing clouds.3 mph50%30.42 "HgN/A
11:20 am75 °FPassing clouds.3 mph50%30.42 "HgN/A
10:50 am73 °FSunny.3 mph53%30.42 "Hg10 mi
10:20 am72 °FSunny.3 mph57%30.42 "Hg10 mi
Weather by CustomWeather, © 2022

See weather overview